createdAt,value
2018-12-16T00:00:45.447Z,4.60
2018-12-16T00:03:12.978Z,4.50
2018-12-16T00:05:40.516Z,4.50
2018-12-16T00:08:07.994Z,4.50
2018-12-16T00:10:35.542Z,4.40
2018-12-16T00:13:04.558Z,4.30
2018-12-16T00:15:32.041Z,4.30
2018-12-16T00:17:59.507Z,4.40
2018-12-16T00:20:26.963Z,4.50
2018-12-16T00:22:54.451Z,4.40
2018-12-16T00:25:21.967Z,4.40
2018-12-16T00:27:49.447Z,4.40
2018-12-16T00:30:16.928Z,4.40
2018-12-16T00:32:44.375Z,4.40
2018-12-16T00:35:11.852Z,4.30
2018-12-16T00:37:39.323Z,4.30
2018-12-16T00:40:07.236Z,4.30
2018-12-16T00:42:34.705Z,4.30
2018-12-16T00:45:02.266Z,4.40
2018-12-16T00:47:29.732Z,4.20
2018-12-16T00:49:57.196Z,4.10
2018-12-16T00:52:24.686Z,4.10
2018-12-16T00:54:52.168Z,4.20
2018-12-16T00:57:19.678Z,4.20
2018-12-16T00:59:47.143Z,4.20
2018-12-16T01:02:20.428Z,4.10
2018-12-16T01:04:47.956Z,4.10
2018-12-16T01:07:15.435Z,4.20
2018-12-16T01:09:42.909Z,4.10
2018-12-16T01:12:10.415Z,4.00
2018-12-16T01:14:37.889Z,4.10
2018-12-16T01:17:05.375Z,4.10
2018-12-16T01:19:32.832Z,4.00
2018-12-16T01:22:00.309Z,4.20
2018-12-16T01:24:27.783Z,4.10
2018-12-16T01:26:55.258Z,4.10
2018-12-16T01:29:22.740Z,4.20
2018-12-16T01:31:50.194Z,4.30
2018-12-16T01:34:17.668Z,4.20
2018-12-16T01:36:45.143Z,4.20
2018-12-16T01:39:12.599Z,4.20
2018-12-16T01:41:40.095Z,4.30
2018-12-16T01:44:07.545Z,4.20
2018-12-16T01:46:34.996Z,4.20
2018-12-16T01:49:02.479Z,4.10
2018-12-16T01:51:30.021Z,4.10
2018-12-16T01:53:57.475Z,4.20
2018-12-16T01:56:24.968Z,4.20
2018-12-16T01:58:52.494Z,4.20
2018-12-16T02:01:19.983Z,4.20
2018-12-16T02:03:47.427Z,4.20
2018-12-16T02:06:14.927Z,4.30
2018-12-16T02:08:42.384Z,4.20
2018-12-16T02:11:09.849Z,4.30
2018-12-16T02:13:37.350Z,4.30
2018-12-16T02:16:05.023Z,4.30
2018-12-16T02:18:32.547Z,4.30
2018-12-16T02:21:00.028Z,4.30
2018-12-16T02:23:27.534Z,4.20
2018-12-16T02:25:54.997Z,4.20
2018-12-16T02:28:22.477Z,4.40
2018-12-16T02:30:49.956Z,4.30
2018-12-16T02:33:17.531Z,4.20
2018-12-16T02:35:45.055Z,4.30
2018-12-16T02:38:12.513Z,4.40
2018-12-16T02:40:39.997Z,4.30
2018-12-16T02:43:07.489Z,4.30
2018-12-16T02:45:34.977Z,4.20
2018-12-16T02:48:02.492Z,4.20
2018-12-16T02:50:29.947Z,4.30
2018-12-16T02:53:04.298Z,4.30
2018-12-16T02:55:26.905Z,4.20
2018-12-16T02:57:54.419Z,4.20
2018-12-16T03:00:21.929Z,4.10
2018-12-16T03:02:49.399Z,4.10
2018-12-16T03:05:16.860Z,4.10
2018-12-16T03:07:44.311Z,4.20
2018-12-16T03:10:11.799Z,4.30
2018-12-16T03:12:39.275Z,4.20
2018-12-16T03:15:07.059Z,4.20
2018-12-16T03:17:34.528Z,4.20
2018-12-16T03:20:02.283Z,4.20
2018-12-16T03:22:29.757Z,4.20
2018-12-16T03:24:57.296Z,4.10
2018-12-16T03:27:24.855Z,4.10
2018-12-16T03:29:52.332Z,4.20
2018-12-16T03:32:19.924Z,4.10
2018-12-16T03:34:47.469Z,4.20
2018-12-16T03:37:14.910Z,4.20
2018-12-16T03:39:42.388Z,4.20
2018-12-16T03:42:10.093Z,4.30
2018-12-16T03:44:37.598Z,4.30
2018-12-16T03:47:05.074Z,4.30
2018-12-16T03:49:32.527Z,4.40
2018-12-16T03:52:00.000Z,4.50
2018-12-16T03:54:27.484Z,4.40
2018-12-16T03:56:54.949Z,4.40
2018-12-16T03:59:22.407Z,4.50
2018-12-16T04:01:56.971Z,4.50
2018-12-16T04:04:25.360Z,4.50
2018-12-16T04:06:53.028Z,4.50
2018-12-16T04:09:20.504Z,4.50
2018-12-16T04:11:47.970Z,4.40
2018-12-16T04:14:15.437Z,4.50
2018-12-16T04:16:42.918Z,4.50
2018-12-16T04:19:10.412Z,4.50
2018-12-16T04:21:37.865Z,4.60
2018-12-16T04:24:05.378Z,4.50
2018-12-16T04:26:32.863Z,4.60
2018-12-16T04:29:00.331Z,4.50
2018-12-16T04:31:27.804Z,4.50
2018-12-16T04:33:55.295Z,4.60
2018-12-16T04:36:22.806Z,4.60
2018-12-16T04:38:50.551Z,4.50
2018-12-16T04:41:18.001Z,4.50
2018-12-16T04:43:45.467Z,4.50
2018-12-16T04:46:12.950Z,4.50
2018-12-16T04:48:40.411Z,4.50
2018-12-16T04:51:07.898Z,4.50
2018-12-16T04:53:37.125Z,4.50
2018-12-16T04:56:04.818Z,4.60
2018-12-16T04:58:32.298Z,4.60
2018-12-16T05:00:59.755Z,4.60
2018-12-16T05:03:27.224Z,4.60
2018-12-16T05:05:54.677Z,4.70
2018-12-16T05:08:22.139Z,4.60
2018-12-16T05:10:49.592Z,4.60
2018-12-16T05:13:17.068Z,4.70
2018-12-16T05:15:44.555Z,4.60
2018-12-16T05:18:12.051Z,4.60
2018-12-16T05:20:39.530Z,4.70
2018-12-16T05:23:06.991Z,4.60
2018-12-16T05:25:34.485Z,4.70
2018-12-16T05:28:01.958Z,4.80
2018-12-16T05:30:29.408Z,4.80
2018-12-16T05:32:57.003Z,4.80
2018-12-16T05:35:24.500Z,4.80
2018-12-16T05:37:51.983Z,4.70
2018-12-16T05:40:19.505Z,4.70
2018-12-16T05:42:46.996Z,4.70
2018-12-16T05:45:14.503Z,4.70
2018-12-16T05:47:41.971Z,4.80
2018-12-16T05:50:09.455Z,4.80
2018-12-16T05:52:36.927Z,4.70
2018-12-16T05:55:04.519Z,4.70
2018-12-16T05:57:31.982Z,4.80
2018-12-16T05:59:59.473Z,4.80
2018-12-16T06:02:26.949Z,4.80
2018-12-16T06:04:54.512Z,4.80
2018-12-16T06:07:21.997Z,4.80
2018-12-16T06:09:49.464Z,4.90
2018-12-16T06:12:16.964Z,4.90
2018-12-16T06:14:44.419Z,4.80
2018-12-16T06:17:11.883Z,4.80
2018-12-16T06:19:39.368Z,4.80
2018-12-16T06:22:06.815Z,4.80
2018-12-16T06:24:34.283Z,4.80
2018-12-16T06:27:01.747Z,4.80
2018-12-16T06:29:29.240Z,4.80
2018-12-16T06:31:56.719Z,4.90
2018-12-16T06:34:24.208Z,4.80
2018-12-16T06:36:51.664Z,4.80
2018-12-16T06:39:19.119Z,4.80
2018-12-16T06:41:46.588Z,4.80
2018-12-16T06:44:14.059Z,4.70
2018-12-16T06:46:41.572Z,4.80
2018-12-16T06:49:09.078Z,4.70
2018-12-16T06:51:36.575Z,4.80
2018-12-16T06:54:04.039Z,4.70
2018-12-16T06:56:31.502Z,4.70
2018-12-16T06:58:58.983Z,4.80
2018-12-16T07:01:26.443Z,4.60
2018-12-16T07:03:53.904Z,4.70
2018-12-16T07:06:21.355Z,4.70
2018-12-16T07:08:48.827Z,4.70
2018-12-16T07:11:16.319Z,4.70
2018-12-16T07:13:43.807Z,4.70
2018-12-16T07:16:11.316Z,4.70
2018-12-16T07:18:38.791Z,4.70
2018-12-16T07:21:06.246Z,4.60
2018-12-16T07:23:33.730Z,4.60
2018-12-16T07:26:01.208Z,4.70
2018-12-16T07:28:28.773Z,4.70
2018-12-16T07:30:56.215Z,4.70
2018-12-16T07:33:23.701Z,4.80
2018-12-16T07:35:51.261Z,4.70
2018-12-16T07:38:18.814Z,4.80
2018-12-16T07:40:46.299Z,4.70
2018-12-16T07:43:13.836Z,4.60
2018-12-16T07:45:41.291Z,4.70
2018-12-16T07:48:08.818Z,4.80
2018-12-16T07:50:36.414Z,4.80
2018-12-16T07:53:03.971Z,4.80
2018-12-16T07:55:31.411Z,4.80
2018-12-16T07:57:58.872Z,4.80
2018-12-16T08:00:26.338Z,4.80
2018-12-16T08:02:53.793Z,4.70
2018-12-16T08:05:21.348Z,4.70
2018-12-16T08:07:48.902Z,4.70
2018-12-16T08:10:16.436Z,4.80
2018-12-16T08:12:43.917Z,4.70
2018-12-16T08:15:11.387Z,4.70
2018-12-16T08:17:38.867Z,4.70
2018-12-16T08:20:06.751Z,4.80
2018-12-16T08:22:34.202Z,4.80
2018-12-16T08:25:01.763Z,4.80
2018-12-16T08:27:29.239Z,4.80
2018-12-16T08:29:56.679Z,4.70
2018-12-16T08:32:24.159Z,4.80
2018-12-16T08:34:51.654Z,4.80
2018-12-16T08:37:19.100Z,4.80
2018-12-16T08:39:46.567Z,4.90
2018-12-16T08:42:14.157Z,4.80
2018-12-16T08:44:41.719Z,4.80
2018-12-16T08:47:09.202Z,4.80
2018-12-16T08:49:36.679Z,4.90
2018-12-16T08:52:06.687Z,4.90
2018-12-16T08:54:34.246Z,4.90
2018-12-16T08:57:01.690Z,4.80
2018-12-16T08:59:29.172Z,4.80
2018-12-16T09:01:56.631Z,4.90
2018-12-16T09:04:25.162Z,4.80
2018-12-16T09:06:53.423Z,4.90
2018-12-16T09:09:21.205Z,4.90
2018-12-16T09:11:48.685Z,4.90
2018-12-16T09:14:16.171Z,4.90
2018-12-16T09:16:43.688Z,4.80
2018-12-16T09:19:11.106Z,4.80
2018-12-16T09:21:39.484Z,4.80
2018-12-16T09:24:06.964Z,4.80
2018-12-16T09:26:34.465Z,4.80
2018-12-16T09:29:01.942Z,4.80
2018-12-16T09:31:29.495Z,4.80
2018-12-16T09:33:57.084Z,4.80
2018-12-16T09:36:24.568Z,4.80
2018-12-16T09:38:51.996Z,4.80
2018-12-16T09:41:19.486Z,4.70
2018-12-16T09:43:47.483Z,4.80
2018-12-16T09:46:14.953Z,4.80
2018-12-16T09:48:42.407Z,4.70
2018-12-16T09:51:09.856Z,4.80
2018-12-16T09:53:37.326Z,4.80
2018-12-16T09:56:04.864Z,4.70
2018-12-16T09:58:32.337Z,4.70
2018-12-16T10:00:59.974Z,4.20
2018-12-16T10:03:27.436Z,4.10
2018-12-16T10:05:55.606Z,4.10
2018-12-16T10:08:23.097Z,3.90
2018-12-16T10:10:51.628Z,3.90
2018-12-16T10:13:19.043Z,4.00
2018-12-16T10:15:46.572Z,3.90
2018-12-16T10:18:14.038Z,4.00
2018-12-16T10:20:41.628Z,4.00
2018-12-16T10:23:09.152Z,3.90
2018-12-16T10:25:36.704Z,3.80
2018-12-16T10:28:04.167Z,3.90
2018-12-16T10:30:32.647Z,3.80
2018-12-16T10:33:00.970Z,3.80
2018-12-16T10:35:28.455Z,3.80
2018-12-16T10:37:57.041Z,3.80
2018-12-16T10:40:24.530Z,3.70
2018-12-16T10:42:52.012Z,3.70
2018-12-16T10:45:19.579Z,3.70
2018-12-16T10:47:47.806Z,3.90
2018-12-16T10:50:15.307Z,3.90
2018-12-16T10:52:42.779Z,4.00
2018-12-16T10:55:10.272Z,3.90
2018-12-16T10:57:38.531Z,3.80
2018-12-16T11:00:12.379Z,3.80
2018-12-16T11:02:39.891Z,3.80
2018-12-16T11:05:07.449Z,3.90
2018-12-16T11:07:34.957Z,3.90
2018-12-16T11:10:02.590Z,4.00
2018-12-16T11:12:30.185Z,3.90
2018-12-16T11:14:57.744Z,3.80
2018-12-16T11:17:25.259Z,4.20
2018-12-16T11:19:53.595Z,4.40
2018-12-16T11:22:21.059Z,4.80
2018-12-16T11:24:48.538Z,4.80
2018-12-16T11:27:16.042Z,4.60
2018-12-16T11:29:43.543Z,4.50
2018-12-16T11:32:11.012Z,4.60
2018-12-16T11:34:39.393Z,4.60
2018-12-16T11:37:06.890Z,4.60
2018-12-16T11:39:34.480Z,4.60
2018-12-16T11:42:01.917Z,4.60
2018-12-16T11:44:30.087Z,4.40
2018-12-16T11:46:57.589Z,4.50
2018-12-16T11:49:25.051Z,4.20
2018-12-16T11:51:52.754Z,4.40
2018-12-16T11:54:20.220Z,4.50
2018-12-16T11:56:47.683Z,4.70
2018-12-16T11:59:17.120Z,4.80
2018-12-16T12:01:44.603Z,4.60
2018-12-16T12:04:12.111Z,4.90
2018-12-16T12:06:39.571Z,4.70
2018-12-16T12:09:07.108Z,4.70
2018-12-16T12:11:35.453Z,4.80
2018-12-16T12:14:02.952Z,4.90
2018-12-16T12:16:30.455Z,4.90
2018-12-16T12:19:00.962Z,4.70
2018-12-16T12:21:28.576Z,4.70
2018-12-16T12:23:56.096Z,4.90
2018-12-16T12:26:23.695Z,5.00
2018-12-16T12:28:51.225Z,4.70
2018-12-16T12:31:18.894Z,4.70
2018-12-16T12:33:47.010Z,4.90
2018-12-16T12:36:16.587Z,4.70
2018-12-16T12:38:44.163Z,4.70
2018-12-16T12:41:11.721Z,4.80
2018-12-16T12:43:39.408Z,4.90
2018-12-16T12:46:06.884Z,4.60
2018-12-16T12:48:35.164Z,4.70
2018-12-16T12:51:02.691Z,4.80
2018-12-16T12:53:30.228Z,4.60
2018-12-16T12:55:57.754Z,4.60
2018-12-16T12:58:25.222Z,4.60
2018-12-16T13:00:52.699Z,4.70
2018-12-16T13:03:20.162Z,4.80
2018-12-16T13:05:47.623Z,4.70
2018-12-16T13:08:15.099Z,4.60
2018-12-16T13:10:42.564Z,4.80
2018-12-16T13:13:10.101Z,4.90
2018-12-16T13:15:37.568Z,4.70
2018-12-16T13:18:05.029Z,4.60
2018-12-16T13:20:32.523Z,4.60
2018-12-16T13:23:00.526Z,4.70
2018-12-16T13:28:31.836Z,4.70
2018-12-16T13:30:59.347Z,4.80
2018-12-16T13:33:26.897Z,4.60
2018-12-16T13:35:54.395Z,4.80
2018-12-16T13:38:21.881Z,4.90
2018-12-16T13:40:49.423Z,5.00
2018-12-16T13:43:16.962Z,5.00
2018-12-16T13:45:44.439Z,5.00
2018-12-16T13:48:11.906Z,5.10
2018-12-16T13:50:39.391Z,4.90
2018-12-16T13:53:06.876Z,4.90
2018-12-16T13:55:40.619Z,5.00
2018-12-16T13:58:04.260Z,4.70
2018-12-16T14:00:31.826Z,5.00
2018-12-16T14:02:59.281Z,5.00
2018-12-16T14:05:26.876Z,5.20
2018-12-16T14:07:54.420Z,5.10
2018-12-16T14:10:21.918Z,4.90
2018-12-16T14:12:49.466Z,4.80
2018-12-16T14:15:17.020Z,5.00
2018-12-16T14:17:45.693Z,5.20
2018-12-16T14:20:13.407Z,5.10
2018-12-16T14:22:40.906Z,5.20
2018-12-16T14:25:08.476Z,5.10
2018-12-16T14:27:35.980Z,4.80
2018-12-16T14:30:06.023Z,4.80
2018-12-16T14:32:33.488Z,5.00
2018-12-16T14:35:00.983Z,4.90
2018-12-16T14:37:28.488Z,4.80
2018-12-16T14:39:56.079Z,4.70
2018-12-16T14:42:23.658Z,4.70
2018-12-16T14:44:51.141Z,4.70
2018-12-16T14:47:18.642Z,4.60
2018-12-16T14:49:46.127Z,4.80
2018-12-16T14:52:13.608Z,4.70
2018-12-16T14:54:41.148Z,4.40
2018-12-16T14:57:08.699Z,4.40
2018-12-16T14:59:36.267Z,4.40
2018-12-16T15:02:03.783Z,4.60
2018-12-16T15:04:31.276Z,4.70
2018-12-16T15:06:58.759Z,4.80
2018-12-16T15:09:26.463Z,4.80
2018-12-16T15:11:53.993Z,4.80
2018-12-16T15:14:21.478Z,4.80
2018-12-16T15:16:49.063Z,4.80
2018-12-16T15:19:16.542Z,4.80
2018-12-16T15:21:44.057Z,4.80
2018-12-16T15:24:11.605Z,4.90
2018-12-16T15:26:39.090Z,4.90
2018-12-16T15:29:06.592Z,4.90
2018-12-16T15:31:34.189Z,5.00
2018-12-16T15:34:01.651Z,5.00
2018-12-16T15:36:29.210Z,4.90
2018-12-16T15:38:56.689Z,4.70
2018-12-16T15:41:24.268Z,4.70
2018-12-16T15:43:51.755Z,4.90
2018-12-16T15:46:19.281Z,4.90
2018-12-16T15:48:46.790Z,5.00
2018-12-16T15:51:14.271Z,5.00
2018-12-16T15:53:42.035Z,4.90
2018-12-16T15:56:09.722Z,5.00
2018-12-16T15:58:37.382Z,5.10
2018-12-16T16:01:04.883Z,5.00
2018-12-16T16:03:32.346Z,5.00
2018-12-16T16:05:59.834Z,5.10
2018-12-16T16:08:27.380Z,5.10
2018-12-16T16:10:54.844Z,5.10
2018-12-16T16:13:22.367Z,4.90
2018-12-16T16:15:49.852Z,4.90
2018-12-16T16:18:17.320Z,4.90
2018-12-16T16:20:44.803Z,4.80
2018-12-16T16:23:12.907Z,5.00
2018-12-16T16:25:40.387Z,5.00
2018-12-16T16:28:07.930Z,5.00
2018-12-16T16:30:35.433Z,5.10
2018-12-16T16:33:02.955Z,5.00
2018-12-16T16:35:30.427Z,5.00
2018-12-16T16:38:00.869Z,4.80
2018-12-16T16:40:28.903Z,4.80
2018-12-16T16:42:56.388Z,5.00
2018-12-16T16:45:23.877Z,5.00
2018-12-16T16:47:51.848Z,4.90
2018-12-16T16:50:19.317Z,4.90
2018-12-16T16:52:46.820Z,4.80
2018-12-16T16:55:14.339Z,4.70
2018-12-16T16:57:41.860Z,4.80
2018-12-16T17:00:09.689Z,4.90
2018-12-16T17:02:38.203Z,4.80
2018-12-16T17:05:05.705Z,4.80
2018-12-16T17:07:33.260Z,4.80
2018-12-16T17:10:00.752Z,4.60
2018-12-16T17:12:28.244Z,4.80
2018-12-16T17:14:55.766Z,4.90
2018-12-16T17:17:23.246Z,4.70
2018-12-16T17:19:50.695Z,4.60
2018-12-16T17:22:20.151Z,4.50
2018-12-16T17:24:47.687Z,4.40
2018-12-16T17:27:15.151Z,4.70
2018-12-16T17:29:42.648Z,4.70
2018-12-16T17:32:10.128Z,4.60
2018-12-16T17:34:37.662Z,4.60
2018-12-16T17:37:05.186Z,4.40
2018-12-16T17:39:32.704Z,4.20
2018-12-16T17:42:00.184Z,4.30
2018-12-16T17:44:27.670Z,4.50
2018-12-16T17:46:55.187Z,4.60
2018-12-16T17:49:22.759Z,4.40
2018-12-16T17:51:50.383Z,4.30
2018-12-16T17:54:17.951Z,4.60
2018-12-16T17:56:45.452Z,4.80
2018-12-16T17:59:17.901Z,4.70
2018-12-16T18:01:42.795Z,4.70
2018-12-16T18:04:10.391Z,4.40
2018-12-16T18:06:37.911Z,4.20
2018-12-16T18:09:06.442Z,4.30
2018-12-16T18:11:33.895Z,4.60
2018-12-16T18:14:01.420Z,4.50
2018-12-16T18:16:28.899Z,4.30
2018-12-16T18:18:56.373Z,4.30
2018-12-16T18:21:23.883Z,4.30
2018-12-16T18:23:51.390Z,4.50
2018-12-16T18:26:18.903Z,4.50
2018-12-16T18:28:46.368Z,4.30
2018-12-16T18:31:13.855Z,4.30
2018-12-16T18:33:41.363Z,4.20
2018-12-16T18:36:08.848Z,4.30
2018-12-16T18:38:36.330Z,4.60
2018-12-16T18:41:03.834Z,4.20
2018-12-16T18:43:31.351Z,4.40
2018-12-16T18:45:58.840Z,4.30
2018-12-16T18:48:26.306Z,4.50
2018-12-16T18:50:53.783Z,4.40
2018-12-16T18:53:21.959Z,4.40
2018-12-16T18:55:49.455Z,4.50
2018-12-16T18:58:16.931Z,4.50
2018-12-16T19:00:44.514Z,4.50
2018-12-16T19:03:12.048Z,4.70
2018-12-16T19:05:39.516Z,4.40
2018-12-16T19:08:07.094Z,4.50
2018-12-16T19:10:34.563Z,4.50
2018-12-16T19:13:02.032Z,4.40
2018-12-16T19:15:29.574Z,4.50
2018-12-16T19:17:57.044Z,4.70
2018-12-16T19:20:24.720Z,4.70
2018-12-16T19:22:52.195Z,4.70
2018-12-16T19:25:19.720Z,4.60
2018-12-16T19:27:47.223Z,4.50
2018-12-16T19:30:14.764Z,4.30
2018-12-16T19:32:42.246Z,4.40
2018-12-16T19:35:09.789Z,4.70
2018-12-16T19:37:37.253Z,4.80
2018-12-16T19:40:05.071Z,4.70
2018-12-16T19:42:32.552Z,4.70
2018-12-16T19:45:00.029Z,4.40
2018-12-16T19:47:27.506Z,4.60
2018-12-16T19:49:54.947Z,4.70
2018-12-16T19:52:22.560Z,4.70
2018-12-16T19:54:50.812Z,4.80
2018-12-16T19:57:18.352Z,4.70
2018-12-16T19:59:45.937Z,4.80
2018-12-16T20:02:13.429Z,4.70
2018-12-16T20:04:45.288Z,4.80
2018-12-16T20:07:12.857Z,4.70
2018-12-16T20:09:40.299Z,4.70
2018-12-16T20:12:07.857Z,4.50
2018-12-16T20:14:35.362Z,4.50
2018-12-16T20:17:02.911Z,4.50
2018-12-16T20:19:30.388Z,4.60
2018-12-16T20:21:57.873Z,4.80
2018-12-16T20:24:26.164Z,4.80
2018-12-16T20:26:53.907Z,4.70
2018-12-16T20:29:21.495Z,4.60
2018-12-16T20:31:49.022Z,4.70
2018-12-16T20:34:16.492Z,4.80
2018-12-16T20:36:43.999Z,4.60
2018-12-16T20:39:11.463Z,4.60
2018-12-16T20:41:39.901Z,4.60
2018-12-16T20:44:07.418Z,4.70
2018-12-16T20:46:34.918Z,4.80
2018-12-16T20:49:02.448Z,4.50
2018-12-16T20:51:29.963Z,4.60
2018-12-16T20:53:57.482Z,4.50
2018-12-16T20:56:25.019Z,4.50
2018-12-16T20:58:54.262Z,4.60
2018-12-16T21:01:21.787Z,4.50
2018-12-16T21:03:49.281Z,4.40
2018-12-16T21:06:16.743Z,4.50
2018-12-16T21:08:44.258Z,4.40
2018-12-16T21:11:17.517Z,4.50
2018-12-16T21:13:50.753Z,4.50
2018-12-16T21:16:23.951Z,4.50
2018-12-16T21:18:51.447Z,4.50
2018-12-16T21:21:18.943Z,4.40
2018-12-16T21:23:46.422Z,4.40
2018-12-16T21:26:13.919Z,4.30
2018-12-16T21:28:41.394Z,4.40
2018-12-16T21:31:08.855Z,4.30
2018-12-16T21:33:36.354Z,4.50
2018-12-16T21:36:03.859Z,4.30
2018-12-16T21:38:31.368Z,4.30
2018-12-16T21:40:59.050Z,4.30
2018-12-16T21:43:26.536Z,4.30
2018-12-16T21:45:54.007Z,4.50
2018-12-16T21:48:21.499Z,4.50
2018-12-16T21:50:48.971Z,4.50
2018-12-16T21:53:16.438Z,4.20
2018-12-16T21:55:43.898Z,4.30
2018-12-16T21:58:11.375Z,4.40
2018-12-16T22:00:38.871Z,4.40
2018-12-16T22:03:06.354Z,4.60
2018-12-16T22:05:33.827Z,4.60
2018-12-16T22:08:01.398Z,4.50
2018-12-16T22:10:28.998Z,4.50
2018-12-16T22:12:56.499Z,4.40
2018-12-16T22:15:23.979Z,4.40
2018-12-16T22:17:51.452Z,4.50
2018-12-16T22:20:18.907Z,4.50
2018-12-16T22:22:46.367Z,4.40
2018-12-16T22:25:13.837Z,4.50
2018-12-16T22:27:41.295Z,4.50
2018-12-16T22:30:09.002Z,4.60
2018-12-16T22:32:36.502Z,4.60
2018-12-16T22:35:04.178Z,4.50
2018-12-16T22:37:31.682Z,4.40
2018-12-16T22:39:59.166Z,4.50
2018-12-16T22:42:26.633Z,4.60
2018-12-16T22:44:54.099Z,4.50
2018-12-16T22:47:21.563Z,4.60
2018-12-16T22:49:48.999Z,4.60
2018-12-16T22:52:16.499Z,4.70
2018-12-16T22:54:43.963Z,4.60
2018-12-16T22:57:11.442Z,4.50
2018-12-16T22:59:38.904Z,4.50
2018-12-16T23:02:06.371Z,4.50
2018-12-16T23:04:33.872Z,4.40
2018-12-16T23:07:01.327Z,4.40
2018-12-16T23:09:28.811Z,4.30
2018-12-16T23:11:56.270Z,4.30
2018-12-16T23:14:23.776Z,4.30
2018-12-16T23:16:51.307Z,4.30
2018-12-16T23:19:18.868Z,4.50
2018-12-16T23:21:46.327Z,4.50
2018-12-16T23:24:13.839Z,4.40
2018-12-16T23:26:41.311Z,4.40
2018-12-16T23:29:08.807Z,4.60
2018-12-16T23:31:36.298Z,4.70
2018-12-16T23:34:03.792Z,4.70
2018-12-16T23:36:31.279Z,4.60
2018-12-16T23:38:58.756Z,4.70
2018-12-16T23:41:26.223Z,4.70
2018-12-16T23:43:53.723Z,4.70
2018-12-16T23:46:21.167Z,4.60
2018-12-16T23:48:48.697Z,4.60
2018-12-16T23:51:16.195Z,4.60
2018-12-16T23:53:43.659Z,4.60
2018-12-16T23:56:11.119Z,4.60
2018-12-16T23:58:38.597Z,4.50
